Time;durP1;ratioP1;P1;durP2;ratioP2;P2;SDS_P1;SDS_P2;PMS_P1;PMS_P2;Temp;Humidity;BMP_temperature;BMP_pressure;BME280_temperature;BME280_humidity;BME280_pressure;Samples;Min_cycle;Max_cycle;Signal;HPM_P1;HPM_P2
2023/10/10 00:02:18;;;;;;;6.00;3.10;;;;;;;-0.58;82.54;99113.18;105875;1251;72647;-23
2023/10/10 00:04:47;;;;;;;5.60;2.40;;;;;;;-0.10;82.90;99110.63;105723;1254;61152;-23
2023/10/10 00:07:14;;;;;;;5.00;3.00;;;;;;;0.45;81.50;99103.12;105897;1257;61160;-24
2023/10/10 00:09:44;;;;;;;5.10;3.40;;;;;;;0.49;80.38;99104.48;105754;1251;73197;-24
2023/10/10 00:12:18;;;;;;;8.00;3.50;;;;;;;0.30;80.28;99104.70;105877;1257;74350;-23
2023/10/10 00:14:50;;;;;;;7.20;3.60;;;;;;;0.02;80.61;99111.05;105649;1254;72427;-23
2023/10/10 00:17:17;;;;;;;6.80;3.60;;;;;;;-0.23;81.50;99117.58;105796;1254;61052;-23
2023/10/10 00:19:45;;;;;;;6.40;3.70;;;;;;;-0.42;82.40;99113.98;105659;1257;61181;-26
2023/10/10 00:22:12;;;;;;;5.80;2.90;;;;;;;-0.55;83.04;99115.96;105916;1251;73034;-24
2023/10/10 00:24:40;;;;;;;5.30;3.20;;;;;;;-0.09;83.22;99115.04;106007;1256;74623;-25
2023/10/10 00:27:12;;;;;;;4.80;3.10;;;;;;;0.50;81.82;99111.47;105978;1251;71682;-24
2023/10/10 00:29:43;;;;;;;6.70;2.90;;;;;;;0.57;80.59;99112.20;105875;1253;61152;-24
2023/10/10 00:32:16;;;;;;;7.00;3.40;;;;;;;0.41;80.31;99111.30;105483;1259;61148;-24
2023/10/10 00:34:48;;;;;;;5.60;3.40;;;;;;;0.16;80.73;99112.41;105768;1251;72591;-24
2023/10/10 00:37:17;;;;;;;5.60;3.90;;;;;;;-0.08;81.05;99113.96;105956;1251;74675;-24
2023/10/10 00:39:52;;;;;;;8.90;3.60;;;;;;;-0.33;81.62;99121.00;105899;1257;71073;-23
2023/10/10 00:42:21;;;;;;;5.60;2.90;;;;;;;-0.55;81.90;99120.23;105871;1254;61133;-25
2023/10/10 00:44:48;;;;;;;6.30;3.30;;;;;;;-0.18;82.38;99118.92;105668;1260;61158;-25
2023/10/10 00:47:16;;;;;;;9.60;3.20;;;;;;;0.33;81.67;99121.84;105791;1254;73706;-25
2023/10/10 00:49:45;;;;;;;6.70;3.40;;;;;;;0.34;81.53;99121.80;105340;1260;74697;-23
2023/10/10 00:52:15;;;;;;;8.30;3.40;;;;;;;0.21;81.81;99123.65;105628;1253;72637;-23
2023/10/10 00:54:45;;;;;;;8.40;3.60;;;;;;;-0.01;82.26;99119.35;105705;1254;61090;-24
2023/10/10 00:57:19;;;;;;;8.10;4.40;;;;;;;-0.26;82.80;99127.91;105845;1257;61057;-25
2023/10/10 00:59:48;;;;;;;6.80;3.90;;;;;;;-0.49;83.66;99128.38;105723;1253;73701;-25
2023/10/10 01:02:20;;;;;;;8.30;3.20;;;;;;;-0.64;84.13;99127.03;105727;1253;72986;-23
2023/10/10 01:04:49;;;;;;;5.60;3.00;;;;;;;-0.18;84.19;99125.08;105853;1253;72656;-24
2023/10/10 01:07:21;;;;;;;9.00;3.60;;;;;;;0.36;82.65;99124.63;105874;1253;61099;-25
2023/10/10 01:10:32;;;;;;;5.40;3.30;;;;;;;0.44;81.51;99122.61;105738;1258;61173;-24
2023/10/10 01:12:40;;;;;;;7.00;3.40;;;;;;;0.23;81.06;99121.91;105670;1257;72662;-24
2023/10/10 01:15:14;;;;;;;5.50;3.40;;;;;;;-0.07;81.17;99121.94;105683;1253;74398;-23
2023/10/10 01:17:43;;;;;;;7.20;4.00;;;;;;;-0.38;81.73;99124.23;105705;1253;71673;-23
2023/10/10 01:20:18;;;;;;;6.90;4.10;;;;;;;-0.62;83.10;99122.71;105868;1257;61126;-24
2023/10/10 01:22:47;;;;;;;5.20;3.20;;;;;;;-0.80;83.57;99122.58;105647;1253;61063;-23
2023/10/10 01:33:35;;;;;;;7.30;3.90;;;;;;;-0.09;81.72;99134.30;105925;1251;61164;-23
2023/10/10 01:36:03;;;;;;;7.90;4.10;;;;;;;-0.41;83.26;99138.17;105651;1259;61179;-23
2023/10/10 01:38:55;;;;;;;6.80;3.90;;;;;;;-0.66;84.48;99138.86;105737;1260;73852;-23
2023/10/10 01:41:30;;;;;;;6.00;3.30;;;;;;;-0.79;85.88;99139.63;105890;1253;73705;-25
2023/10/10 01:44:17;;;;;;;5.60;3.30;;;;;;;-0.23;85.63;99140.27;105919;1251;72654;-25
2023/10/10 01:46:45;;;;;;;7.50;3.70;;;;;;;0.33;83.84;99141.50;105828;1254;61163;-25
2023/10/10 01:49:30;;;;;;;9.60;4.10;;;;;;;0.31;82.78;99141.04;105984;1251;61231;-25
2023/10/10 01:52:00;;;;;;;6.20;3.30;;;;;;;0.06;82.94;99140.24;105871;1257;74436;-25
2023/10/10 01:54:41;;;;;;;8.30;4.40;;;;;;;-0.17;83.42;99146.71;105827;1251;74259;-23
2023/10/10 01:57:20;;;;;;;8.90;4.40;;;;;;;-0.41;83.98;99147.05;105836;1256;72437;-23
2023/10/10 01:59:48;;;;;;;6.50;4.00;;;;;;;-0.62;84.98;99150.83;105928;1251;61249;-23
2023/10/10 02:02:17;;;;;;;6.10;3.50;;;;;;;-0.20;84.84;99151.60;105656;1259;61214;-23
2023/10/10 02:04:47;;;;;;;5.00;3.30;;;;;;;0.31;83.54;99147.53;105668;1251;73861;-23
2023/10/10 02:07:32;;;;;;;6.80;3.90;;;;;;;0.32;82.37;99141.19;105830;1252;74682;-23
2023/10/10 02:10:13;;;;;;;6.40;3.80;;;;;;;0.07;82.28;99138.02;105814;1251;71712;-23
2023/10/10 02:12:44;;;;;;;7.10;4.30;;;;;;;-0.23;82.77;99143.34;105700;1252;61081;-23
2023/10/10 02:15:15;;;;;;;8.40;4.20;;;;;;;-0.52;83.59;99143.14;105695;1257;61184;-23
2023/10/10 02:17:51;;;;;;;7.50;4.50;;;;;;;-0.76;84.58;99149.41;105921;1257;73610;-23
2023/10/10 02:20:33;;;;;;;7.40;3.80;;;;;;;-0.97;85.81;99148.91;105998;1255;74119;-23
2023/10/10 02:25:41;;;;;;;6.90;3.90;;;;;;;0.04;84.42;99158.59;105968;1251;61250;-23
2023/10/10 02:30:49;;;;;;;7.70;3.90;;;;;;;-0.23;83.38;99156.67;105970;1251;73801;-23
2023/10/10 02:35:56;;;;;;;10.10;4.90;;;;;;;-0.75;85.14;99153.64;105856;1255;71196;-23
2023/10/10 02:44:09;;;;;;;7.30;4.00;;;;;;;-0.03;84.20;99153.40;105701;1251;73494;-24
2023/10/10 02:46:42;;;;;;;8.20;4.70;;;;;;;-0.07;83.43;99152.02;105894;1255;73077;-23
2023/10/10 02:49:12;;;;;;;7.90;4.60;;;;;;;-0.29;83.46;99148.83;105963;1251;72509;-23
2023/10/10 02:51:48;;;;;;;7.10;4.40;;;;;;;-0.54;84.30;99150.04;105727;1260;61163;-23
2023/10/10 02:54:43;;;;;;;9.30;5.30;;;;;;;-0.81;85.60;99145.50;105773;1251;61101;-23
2023/10/10 02:59:59;;;;;;;7.10;4.00;;;;;;;-0.38;86.66;99152.05;105767;1260;74358;-23
2023/10/10 03:02:39;;;;;;;7.40;4.60;;;;;;;0.10;84.82;99150.36;105955;1251;72594;-23
2023/10/10 03:06:56;;;;;;;7.90;4.50;;;;;;;-0.10;83.88;99156.18;102662;1295;601025;-24
2023/10/10 03:19:38;;;;;;;7.40;5.10;;;;;;;-0.29;86.76;99155.15;104914;1269;61202;-24
2023/10/10 03:25:21;;;;;;;9.80;5.60;;;;;;;0.23;83.42;99155.35;104824;1267;72240;-22
2023/10/10 03:27:51;;;;;;;7.90;5.20;;;;;;;-0.05;83.30;99150.89;104672;1267;73165;-23
2023/10/10 03:30:34;;;;;;;10.70;5.70;;;;;;;-0.33;83.87;99152.23;102499;1264;3234303;-23
2023/10/10 03:33:10;;;;;;;11.80;5.90;;;;;;;-0.62;84.61;99153.56;104875;1263;61072;-22
2023/10/10 05:24:49;;;;;;;23.40;12.10;;;;;;;0.96;83.94;99241.63;109403;1252;72559;-23
2023/10/10 05:27:29;;;;;;;41.10;18.90;;;;;;;0.86;84.83;99246.27;109482;1252;72640;-23
2023/10/10 05:29:57;;;;;;;40.70;19.70;;;;;;;0.78;85.47;99251.88;109250;1251;58780;-23
2023/10/10 05:32:30;;;;;;;14.20;8.30;;;;;;;0.71;86.41;99251.95;109395;1255;60079;-23
2023/10/10 05:34:58;;;;;;;13.60;8.30;;;;;;;1.27;85.99;99253.23;109508;1252;71851;-24
2023/10/10 05:37:28;;;;;;;11.70;7.80;;;;;;;1.78;84.12;99255.82;109517;1252;74412;-24
2023/10/10 05:39:58;;;;;;;14.20;8.00;;;;;;;1.88;83.06;99263.60;109385;1252;71413;-24
2023/10/10 05:42:33;;;;;;;14.80;7.90;;;;;;;1.74;83.42;99265.92;109479;1253;60404;-23
2023/10/10 05:45:07;;;;;;;15.10;8.80;;;;;;;1.62;83.80;99263.31;109496;1253;60124;-24
2023/10/10 05:47:37;;;;;;;;;;;;;;;1.47;84.53;99265.95;109590;1252;71851;-24
2023/10/10 05:50:10;;;;;;;14.80;8.00;;;;;;;1.36;85.24;99266.08;109480;1252;74177;-23
2023/10/10 05:52:38;;;;;;;10.50;6.10;;;;;;;1.39;85.73;99264.05;109340;1253;72664;-23
2023/10/10 05:55:07;;;;;;;12.90;7.10;;;;;;;2.03;84.99;99271.02;109482;1253;59272;-24
2023/10/10 05:57:36;;;;;;;11.70;7.00;;;;;;;2.75;82.85;99282.46;109197;1253;60052;-24
2023/10/10 06:00:10;;;;;;;12.50;7.20;;;;;;;2.85;81.23;99284.92;109479;1253;73074;-24
2023/10/10 06:02:45;;;;;;;14.10;8.00;;;;;;;2.76;81.22;99291.50;109259;1253;74541;-23
2023/10/10 06:05:17;;;;;;;13.10;8.00;;;;;;;2.66;81.74;99287.48;109378;1253;71369;-24
2023/10/10 06:07:45;;;;;;;15.30;9.00;;;;;;;2.52;82.51;99293.10;109232;1254;59246;-24
2023/10/10 06:10:19;;;;;;;13.50;8.70;;;;;;;2.40;83.42;99296.52;109344;1254;58750;-24
2023/10/10 06:12:47;;;;;;;10.10;6.30;;;;;;;2.31;83.94;99294.02;109312;1254;72172;-24
2023/10/10 06:15:18;;;;;;;11.30;7.20;;;;;;;2.89;83.02;99291.45;109360;1254;73377;-24
2023/10/10 06:17:48;;;;;;;12.30;7.30;;;;;;;3.29;80.67;99295.23;109156;1258;71245;-24
2023/10/10 06:20:21;;;;;;;13.40;7.90;;;;;;;3.26;79.83;99298.67;109188;1254;60056;-24
2023/10/10 06:22:49;;;;;;;12.20;7.50;;;;;;;3.16;80.28;99299.45;109390;1254;58738;-24
2023/10/10 06:25:17;;;;;;;10.30;7.70;;;;;;;2.99;80.22;99296.80;109341;1254;71757;-24
2023/10/10 06:27:45;;;;;;;12.70;7.70;;;;;;;2.77;80.57;99299.52;109361;1254;74324;-24
2023/10/10 06:30:19;;;;;;;13.30;7.50;;;;;;;2.58;81.34;99301.23;109288;1254;72735;-24
2023/10/10 06:32:47;;;;;;;10.70;6.20;;;;;;;2.55;82.17;99307.50;109276;1254;59607;-24
2023/10/10 06:37:52;;;;;;;11.70;7.40;;;;;;;3.66;79.07;99305.31;109305;1254;73019;-24
2023/10/10 06:40:25;;;;;;;11.90;7.40;;;;;;;3.70;78.94;99309.41;109246;1254;74355;-24
2023/10/10 06:42:56;;;;;;;12.80;7.60;;;;;;;3.63;79.27;99310.48;109184;1254;72642;-24
2023/10/10 06:45:34;;;;;;;17.40;8.30;;;;;;;3.41;79.74;99319.56;109196;1255;60089;-24
2023/10/10 06:48:02;;;;;;;13.50;8.40;;;;;;;3.27;80.02;99322.09;109364;1254;58764;-24
2023/10/10 06:50:38;;;;;;;15.30;8.70;;;;;;;2.95;80.48;99322.02;109299;1254;71360;-24
2023/10/10 06:53:13;;;;;;;8.30;5.60;;;;;;;2.78;81.64;99324.33;109420;1254;73308;-24
2023/10/10 06:55:45;;;;;;;11.50;6.80;;;;;;;3.31;81.59;99325.17;109244;1255;72640;-24
2023/10/10 06:58:14;;;;;;;12.30;7.00;;;;;;;3.85;79.73;99325.36;109272;1254;60137;-24
2023/10/10 07:00:45;;;;;;;11.40;7.00;;;;;;;4.00;79.39;99333.38;109352;1254;58728;-24
2023/10/10 07:03:18;;;;;;;14.20;8.10;;;;;;;3.76;78.62;99333.90;109379;1254;71748;-24
2023/10/10 07:05:48;;;;;;;10.50;7.40;;;;;;;3.74;79.87;99336.37;109326;1254;73656;-24
2023/10/10 07:08:19;;;;;;;11.80;7.80;;;;;;;3.75;80.05;99332.89;109360;1255;71682;-24
2023/10/10 07:10:47;;;;;;;15.00;8.50;;;;;;;3.55;79.61;99337.83;109150;1260;59331;-24
2023/10/10 07:13:19;;;;;;;12.40;6.60;;;;;;;3.46;80.23;99337.35;109176;1254;58787;-24
2023/10/10 07:15:53;;;;;;;9.90;6.90;;;;;;;3.98;79.58;99334.98;109281;1254;71419;-24
2023/10/10 07:18:23;;;;;;;15.60;7.50;;;;;;;4.54;77.18;99342.89;109208;1254;74330;-24
2023/10/10 07:21:42;;;;;;;10.60;7.60;;;;;;;4.51;76.15;99342.70;109141;1254;71479;-24
2023/10/10 07:26:31;;;;;;;11.20;7.20;;;;;;;4.34;76.83;99351.30;109215;1254;58791;-24
2023/10/10 07:29:25;;;;;;;11.00;7.80;;;;;;;4.35;77.46;99348.68;109355;1254;73053;-24
2023/10/10 07:31:47;;;;;;;13.40;7.20;;;;;;;4.27;77.48;99349.40;109304;1254;72439;-24
2023/10/10 07:34:17;;;;;;;10.90;5.60;;;;;;;4.32;77.25;99348.48;109217;1254;73425;-24
2023/10/10 07:36:50;;;;;;;11.30;6.20;;;;;;;4.85;76.27;99351.95;109157;1254;61137;-24
2023/10/10 07:39:33;;;;;;;11.20;6.00;;;;;;;5.31;73.70;99357.05;109177;1254;61325;-24
2023/10/10 07:42:01;;;;;;;12.90;7.10;;;;;;;5.36;72.49;99350.94;109296;1254;72048;-24
2023/10/10 07:44:30;;;;;;;11.00;7.00;;;;;;;5.20;72.95;99351.45;109292;1254;75529;-24
2023/10/10 07:49:47;;;;;;;10.70;6.60;;;;;;;5.34;73.87;99347.11;109124;1254;58784;-24
2023/10/10 07:52:16;;;;;;;11.70;6.20;;;;;;;5.37;73.31;99348.30;109166;1254;60104;-24
2023/10/10 07:54:46;;;;;;;9.30;6.30;;;;;;;5.34;73.14;99353.82;109143;1254;73040;-24
2023/10/10 07:57:17;;;;;;;9.90;6.40;;;;;;;5.32;73.33;99359.61;109269;1254;73190;-24
2023/10/10 07:59:46;;;;;;;9.20;6.10;;;;;;;5.26;72.88;99365.45;109211;1254;72004;-24
2023/10/10 08:05:19;;;;;;;11.50;4.90;;;;;;;5.42;73.05;99365.62;108975;1254;61059;-24
2023/10/10 08:07:49;;;;;;;10.90;5.60;;;;;;;6.23;71.27;99364.17;109279;1255;72474;-23
2023/10/10 08:10:29;;;;;;;11.90;6.00;;;;;;;6.77;69.09;99358.75;109302;1255;76775;-24
2023/10/10 08:13:00;;;;;;;11.30;5.70;;;;;;;6.91;68.01;99360.53;109220;1255;75024;-25
2023/10/10 08:15:28;;;;;;;8.40;5.90;;;;;;;6.90;67.12;99351.23;109083;1256;60114;-24
2023/10/10 08:17:58;;;;;;;9.10;5.40;;;;;;;6.78;67.50;99348.34;109224;1255;58783;-24
2023/10/10 08:20:33;;;;;;;9.20;5.80;;;;;;;6.60;67.37;99347.86;109123;1255;71788;-24
2023/10/10 08:23:03;;;;;;;9.20;5.50;;;;;;;6.64;67.76;99348.48;109121;1255;74340;-24
2023/10/10 08:25:32;;;;;;;16.50;7.30;;;;;;;6.68;68.37;99350.48;109061;1255;72747;-24
2023/10/10 08:28:00;;;;;;;10.80;7.20;;;;;;;6.59;68.36;99359.14;109030;1256;62270;-24
2023/10/10 08:30:28;;;;;;;11.20;6.30;;;;;;;6.52;68.62;99361.95;109193;1256;59095;-24
2023/10/10 08:32:57;;;;;;;8.90;5.70;;;;;;;6.54;68.86;99362.73;109189;1256;72101;-24
2023/10/10 08:35:29;;;;;;;9.80;5.90;;;;;;;6.71;68.32;99357.58;109022;1256;73168;-24
2023/10/10 08:37:58;;;;;;;7.60;5.90;;;;;;;6.89;67.69;99361.32;109106;1256;70841;-24
2023/10/10 08:40:33;;;;;;;8.20;5.00;;;;;;;6.95;67.23;99367.14;109195;1255;60072;-24
2023/10/10 08:43:02;;;;;;;13.10;5.80;;;;;;;7.03;66.61;99356.67;109194;1259;58782;-24
2023/10/10 08:45:39;;;;;;;10.30;6.20;;;;;;;7.12;66.12;99360.79;108995;1255;71861;-24
2023/10/10 08:48:15;;;;;;;9.50;5.40;;;;;;;7.17;66.03;99360.48;109245;1256;76743;-24
2023/10/10 08:50:46;;;;;;;8.30;5.20;;;;;;;7.34;65.18;99356.85;109200;1258;72758;-24
2023/10/10 08:53:14;;;;;;;7.90;5.50;;;;;;;7.64;64.35;99360.48;109111;1255;58848;-24
2023/10/10 08:55:42;;;;;;;9.10;5.50;;;;;;;7.83;64.26;99363.38;109109;1255;62265;-24
2023/10/10 08:58:10;;;;;;;9.50;4.10;;;;;;;8.23;62.39;99364.27;109127;1255;72681;-24
2023/10/10 09:00:38;;;;;;;5.70;4.40;;;;;;;8.49;60.16;99368.58;109211;1257;73860;-24
2023/10/10 09:03:07;;;;;;;7.70;4.70;;;;;;;8.65;59.69;99371.02;109194;1255;72704;-24
2023/10/10 09:05:36;;;;;;;8.30;5.50;;;;;;;8.84;59.54;99368.33;109081;1256;60141;-24
2023/10/10 09:08:49;;;;;;;12.20;6.30;;;;;;;8.97;59.18;99365.05;109224;1256;59573;-24
2023/10/10 09:10:56;;;;;;;8.30;5.10;;;;;;;9.35;58.63;99375.48;109119;1257;73894;-24
2023/10/10 09:13:25;;;;;;;7.20;4.80;;;;;;;9.31;57.98;99374.57;109193;1255;74328;-25
2023/10/10 09:15:54;;;;;;;8.50;4.30;;;;;;;9.50;57.17;99374.16;109100;1256;72683;-24
2023/10/10 09:18:23;;;;;;;6.10;3.20;;;;;;;9.73;55.00;99371.27;108939;1256;61481;-24
2023/10/10 09:20:53;;;;;;;6.40;3.50;;;;;;;9.76;54.44;99369.64;109084;1256;58715;-24
2023/10/10 09:23:25;;;;;;;5.00;3.30;;;;;;;9.98;54.41;99373.21;109081;1256;73847;-24
2023/10/10 09:29:03;;;;;;;5.50;3.30;;;;;;;10.22;53.43;99373.71;108919;1256;75003;-24
2023/10/10 09:31:34;;;;;;;5.20;2.80;;;;;;;10.51;52.78;99379.80;109098;1256;58992;-24
2023/10/10 09:34:06;;;;;;;4.70;2.50;;;;;;;10.59;51.96;99376.40;109041;1255;60023;-24
2023/10/10 09:36:39;;;;;;;5.00;2.00;;;;;;;10.38;51.44;99373.26;109197;1256;73857;-24
2023/10/10 09:39:09;;;;;;;4.20;2.30;;;;;;;10.06;51.10;99383.59;109108;1255;74457;-24
2023/10/10 09:42:00;;;;;;;3.20;2.00;;;;;;;9.98;51.78;99382.84;109031;1256;72698;-24
2023/10/10 09:44:37;;;;;;;3.00;2.20;;;;;;;9.55;51.77;99385.19;109083;1256;60017;-24
2023/10/10 09:55:42;;;;;;;7.70;2.80;;;;;;;10.42;50.39;99383.59;108609;1263;72272;-24
2023/10/10 09:58:24;;;;;;;4.00;2.50;;;;;;;10.93;50.00;99387.37;108604;1268;59069;-24
2023/10/10 10:00:52;;;;;;;2.50;2.00;;;;;;;10.74;48.52;99377.16;108909;1256;59347;-24
2023/10/10 10:06:34;;;;;;;5.10;2.30;;;;;;;10.91;47.85;99376.59;109094;1256;74485;-24
2023/10/10 10:09:51;;;;;;;4.80;2.20;;;;;;;11.38;46.50;99365.08;109029;1256;72698;-24
2023/10/10 10:12:30;;;;;;;3.80;2.20;;;;;;;11.34;45.84;99370.09;108953;1256;60069;-24
2023/10/10 10:15:16;;;;;;;2.30;1.50;;;;;;;11.57;45.84;99364.96;109137;1256;61443;-24
2023/10/10 10:18:11;;;;;;;4.00;2.40;;;;;;;11.48;44.10;99357.66;109135;1256;75863;-24
2023/10/10 10:21:28;;;;;;;3.70;2.30;;;;;;;11.41;44.78;99356.31;109048;1256;72233;-24
2023/10/10 10:23:34;;;;;;;3.90;1.90;;;;;;;11.30;44.76;99357.54;109032;1260;72726;-24
2023/10/10 10:26:06;;;;;;;6.70;2.50;;;;;;;11.65;44.93;99354.63;109013;1256;60033;-24
2023/10/10 10:28:36;;;;;;;4.80;2.20;;;;;;;11.56;44.60;99350.09;109120;1256;58661;-24
2023/10/10 10:31:16;;;;;;;4.40;2.20;;;;;;;11.66;44.88;99357.13;109007;1256;76071;-24
2023/10/10 10:34:05;;;;;;;5.60;1.70;;;;;;;11.52;44.76;99358.72;109024;1256;74280;-24
2023/10/10 10:36:44;;;;;;;7.50;1.60;;;;;;;10.97;43.13;99358.38;108987;1256;73466;-24
2023/10/10 10:39:20;;;;;;;2.40;1.50;;;;;;;10.95;43.11;99356.78;109035;1257;58849;-24
2023/10/10 10:41:54;;;;;;;3.00;2.10;;;;;;;10.86;45.74;99352.95;109073;1256;60965;-24
2023/10/10 10:44:53;;;;;;;2.70;1.30;;;;;;;11.25;44.46;99348.70;109128;1256;76104;-24
2023/10/10 10:47:45;;;;;;;2.10;1.40;;;;;;;11.21;42.19;99354.09;109035;1256;74363;-24
2023/10/10 10:50:28;;;;;;;2.50;1.50;;;;;;;11.58;41.70;99348.54;109131;1256;71401;-24
2023/10/10 10:53:05;;;;;;;2.50;1.30;;;;;;;11.23;41.75;99351.13;109060;1258;58867;-24
2023/10/10 10:55:39;;;;;;;1.60;1.20;;;;;;;10.74;41.03;99354.92;109065;1256;58778;-24
2023/10/10 10:58:09;;;;;;;2.40;1.00;;;;;;;10.91;40.99;99352.06;109149;1256;72666;-24
2023/10/10 11:00:57;;;;;;;2.10;1.40;;;;;;;10.95;40.39;99346.39;109074;1256;75093;-24
2023/10/10 11:03:33;;;;;;;2.00;1.30;;;;;;;11.18;40.55;99351.73;109010;1256;72691;-24
2023/10/10 11:06:06;;;;;;;2.20;1.20;;;;;;;10.87;41.27;99358.77;109028;1257;58839;-24
2023/10/10 11:14:18;;;;;;;2.00;1.00;;;;;;;11.79;39.76;99356.40;109009;1258;74350;-24
2023/10/10 11:16:56;;;;;;;1.40;0.80;;;;;;;11.61;39.84;99352.98;108958;1257;74911;-24
2023/10/10 11:21:59;;;;;;;6.90;1.20;;;;;;;11.79;39.45;99357.30;109024;1257;58783;-24
2023/10/10 11:24:31;;;;;;;3.70;1.10;;;;;;;11.88;38.09;99347.87;108984;1259;73857;-24
2023/10/10 11:29:48;;;;;;;1.30;0.80;;;;;;;11.62;36.86;99349.41;109060;1257;72662;-24
2023/10/10 11:32:23;;;;;;;2.40;1.10;;;;;;;11.72;36.94;99357.84;108998;1257;61172;-24
2023/10/10 11:34:56;;;;;;;1.70;0.90;;;;;;;11.37;37.62;99355.55;108999;1257;60028;-24
2023/10/10 11:37:32;;;;;;;2.20;1.00;;;;;;;11.54;38.33;99353.36;109032;1257;72594;-24
2023/10/10 11:42:57;;;;;;;1.70;1.00;;;;;;;11.92;37.01;99350.17;109025;1259;72126;-24
2023/10/10 11:45:28;;;;;;;1.50;1.00;;;;;;;11.75;37.05;99359.20;108844;1257;58876;-24
2023/10/10 11:48:00;;;;;;;2.50;1.00;;;;;;;11.52;37.44;99365.72;109076;1258;60214;-24
2023/10/10 11:50:51;;;;;;;2.40;1.50;;;;;;;11.49;37.55;99367.86;109003;1259;73875;-24
2023/10/10 11:53:23;;;;;;;1.80;1.20;;;;;;;11.12;38.63;99368.02;108989;1257;73103;-24
2023/10/10 11:56:01;;;;;;;1.60;0.90;;;;;;;11.07;38.42;99364.34;109008;1257;72685;-24
2023/10/10 11:58:38;;;;;;;2.50;0.90;;;;;;;11.45;37.89;99360.67;108952;1257;58889;-24
2023/10/10 12:01:06;;;;;;;3.20;1.20;;;;;;;11.62;37.48;99360.04;109001;1257;60043;-24
2023/10/10 12:06:21;;;;;;;2.40;0.90;;;;;;;11.88;36.58;99357.06;109053;1259;76707;-24
2023/10/10 12:08:54;;;;;;;3.10;1.10;;;;;;;12.23;36.48;99352.66;109001;1259;74922;-24
2023/10/10 12:11:25;;;;;;;1.70;1.00;;;;;;;12.03;36.94;99355.73;108982;1258;60582;-24
2023/10/10 12:13:56;;;;;;;3.00;1.40;;;;;;;11.92;36.49;99355.92;108936;1259;60087;-24
2023/10/10 12:16:27;;;;;;;1.90;1.10;;;;;;;11.80;36.75;99359.45;108966;1259;73853;-24
2023/10/10 12:18:59;;;;;;;4.40;1.90;;;;;;;11.75;36.80;99358.50;109003;1259;73661;-24
2023/10/10 12:21:31;;;;;;;7.10;2.60;;;;;;;11.25;38.12;99362.94;108860;1259;74524;-24
2023/10/10 12:24:03;;;;;;;1.80;1.00;;;;;;;11.34;38.20;99362.59;108898;1259;62704;-24
2023/10/10 12:26:41;;;;;;;1.70;1.10;;;;;;;11.74;37.57;99363.08;108925;1259;61290;-24
2023/10/10 12:29:13;;;;;;;5.00;1.70;;;;;;;11.85;37.11;99362.77;108952;1258;75951;-24
2023/10/10 12:31:45;;;;;;;2.10;1.00;;;;;;;11.37;37.46;99363.25;108947;1259;75351;-24
2023/10/10 12:34:21;;;;;;;2.70;1.20;;;;;;;11.00;37.90;99372.74;108887;1258;71417;-24
2023/10/10 12:36:59;;;;;;;4.00;1.70;;;;;;;10.89;38.41;99378.98;108955;1259;58870;-24
2023/10/10 12:39:30;;;;;;;3.30;1.50;;;;;;;10.99;37.81;99376.48;108893;1259;61020;-24
2023/10/10 12:42:00;;;;;;;4.40;1.80;;;;;;;11.26;38.50;99376.83;109015;1259;72999;-24
2023/10/10 12:44:30;;;;;;;5.20;1.70;;;;;;;11.60;37.31;99374.52;108877;1259;73063;-24
2023/10/10 12:47:06;;;;;;;11.70;2.90;;;;;;;11.82;37.48;99370.29;108903;1259;74944;-24
2023/10/10 12:49:44;;;;;;;3.30;1.70;;;;;;;11.91;36.73;99373.52;108913;1259;62573;-24
2023/10/10 12:52:17;;;;;;;3.80;1.50;;;;;;;11.77;36.33;99375.55;108967;1258;60148;-24
2023/10/10 12:54:57;;;;;;;2.90;1.20;;;;;;;11.70;36.84;99377.11;108902;1257;72398;-24
2023/10/10 12:57:32;;;;;;;6.10;2.40;;;;;;;11.61;36.50;99383.95;108974;1258;76455;-24
2023/10/10 13:02:53;;;;;;;2.60;1.30;;;;;;;11.25;37.39;99389.38;108851;1259;58858;-24
2023/10/10 13:05:28;;;;;;;2.30;1.50;;;;;;;10.97;37.70;99386.52;108862;1259;62202;-24
2023/10/10 13:14:46;;;;;;;2.10;1.40;;;;;;;10.37;38.99;99388.98;102673;1290;599468;-24
2023/10/10 13:17:30;;;;;;;4.50;2.10;;;;;;;10.46;39.37;99392.27;104809;1263;61163;-22
2023/10/10 13:19:58;;;;;;;5.00;2.50;;;;;;;10.82;38.93;99397.96;104872;1271;61299;-23
2023/10/10 13:22:29;;;;;;;2.90;1.40;;;;;;;10.89;38.50;99399.85;104945;1269;72249;-23
2023/10/10 13:24:58;;;;;;;4.80;3.00;;;;;;;10.92;38.77;99398.71;105276;1260;77158;-23
2023/10/10 13:27:26;;;;;;;3.30;1.80;;;;;;;11.10;38.39;99398.15;102874;1263;3173463;-23
2023/10/10 13:29:54;;;;;;;2.60;1.40;;;;;;;11.16;38.26;99397.80;105249;1263;63195;-23
2023/10/10 13:32:24;;;;;;;1.40;0.90;;;;;;;10.93;38.37;99396.56;105250;1258;61211;-23
2023/10/10 13:42:17;;;;;;;2.60;1.10;;;;;;;10.44;40.00;99395.71;102577;1293;599711;-23
2023/10/10 13:44:48;;;;;;;1.60;0.90;;;;;;;10.24;40.62;99397.91;104837;1267;61072;-23
2023/10/10 13:47:17;;;;;;;2.20;1.30;;;;;;;10.06;41.45;99403.73;104908;1270;62957;-23
2023/10/10 13:49:45;;;;;;;1.80;0.90;;;;;;;9.82;41.51;99400.96;104760;1267;74008;-23
2023/10/10 13:52:16;;;;;;;2.70;1.20;;;;;;;9.86;41.44;99403.97;104874;1267;74357;-23
2023/10/10 13:54:44;;;;;;;3.60;1.10;;;;;;;10.11;40.96;99405.63;102389;1264;3175253;-24
2023/10/10 13:57:12;;;;;;;2.70;1.10;;;;;;;10.29;40.99;99411.20;104774;1264;61077;-23
2023/10/10 14:07:14;;;;;;;2.20;1.40;;;;;;;10.54;39.84;99405.94;102523;1292;600140;-25
2023/10/10 14:09:48;;;;;;;6.20;1.30;;;;;;;10.54;40.05;99406.94;104702;1274;62789;-24
2023/10/10 14:12:20;;;;;;;2.10;1.00;;;;;;;10.60;40.24;99406.68;104761;1269;62792;-22
2023/10/10 14:14:48;;;;;;;2.50;1.20;;;;;;;10.66;39.76;99409.40;104765;1269;72321;-23
2023/10/10 14:17:16;;;;;;;2.40;1.30;;;;;;;10.77;39.50;99406.29;104803;1271;76781;-24
2023/10/10 14:19:45;;;;;;;2.70;1.30;;;;;;;10.84;39.36;99409.37;102408;1266;3126005;-24
2023/10/10 14:22:22;;;;;;;2.00;1.10;;;;;;;10.95;39.65;99415.52;104688;1275;61531;-23
2023/10/10 14:24:53;;;;;;;2.60;1.30;;;;;;;10.98;39.29;99414.96;104912;1265;61783;-23
2023/10/10 14:27:23;;;;;;;4.30;1.80;;;;;;;10.80;39.69;99417.65;104818;1265;72603;-23
2023/10/10 14:29:51;;;;;;;1.60;1.00;;;;;;;10.51;40.31;99415.69;104813;1265;76480;-23
2023/10/10 14:39:59;;;;;;;4.60;1.20;;;;;;;10.38;40.49;99424.30;102563;1292;600225;-23
2023/10/10 14:42:27;;;;;;;2.00;1.10;;;;;;;10.15;41.06;99425.77;104811;1272;61154;-23
2023/10/10 14:44:56;;;;;;;4.90;1.10;;;;;;;10.01;40.98;99425.24;104783;1266;61495;-23
2023/10/10 14:47:24;;;;;;;2.90;1.00;;;;;;;9.87;41.76;99430.91;104811;1271;72216;-23
2023/10/10 14:49:56;;;;;;;3.40;1.70;;;;;;;9.86;42.35;99437.59;104843;1266;74369;-23
2023/10/10 14:52:34;;;;;;;2.60;1.10;;;;;;;9.84;42.50;99435.80;103940;1266;3128017;-24
2023/10/10 14:55:07;;;;;;;3.90;1.50;;;;;;;9.71;43.05;99438.84;105030;1265;75473;-24
2023/10/10 14:57:35;;;;;;;1.90;1.30;;;;;;;9.66;43.50;99438.65;104797;1264;61070;-23
2023/10/10 15:00:06;;;;;;;1.80;1.00;;;;;;;9.54;43.50;99438.27;105054;1263;61109;-23
2023/10/10 15:10:16;;;;;;;3.20;1.20;;;;;;;9.25;44.76;99442.77;102641;1293;599988;-26
2023/10/10 15:12:47;;;;;;;4.10;1.50;;;;;;;9.08;45.28;99439.61;104813;1266;61173;-25
2023/10/10 15:15:16;;;;;;;1.60;1.10;;;;;;;8.93;45.57;99444.09;104770;1272;62602;-25
2023/10/10 15:25:22;;;;;;;4.10;1.20;;;;;;;8.32;47.48;99459.16;102665;1295;600230;-22
2023/10/10 15:35:29;;;;;;;5.00;1.50;;;;;;;7.73;49.49;99461.13;102698;1294;600219;-22
2023/10/10 15:37:57;;;;;;;3.30;1.30;;;;;;;7.61;49.57;99465.18;105083;1265;61069;-22
2023/10/10 15:40:25;;;;;;;2.40;1.40;;;;;;;7.51;49.82;99468.43;104929;1270;61237;-24
2023/10/10 15:42:54;;;;;;;3.10;1.40;;;;;;;7.37;50.03;99468.73;104909;1270;72243;-24
2023/10/10 15:45:22;;;;;;;2.40;1.30;;;;;;;7.24;50.60;99475.03;104896;1267;73216;-23
2023/10/10 15:47:54;;;;;;;3.70;1.50;;;;;;;7.08;51.35;99478.94;105149;1267;70795;-24
2023/10/10 15:50:22;;;;;;;4.50;1.50;;;;;;;6.94;51.44;99477.38;102869;1269;61188;-24
2023/10/10 15:52:50;;;;;;;4.20;1.50;;;;;;;6.80;52.25;99481.27;105220;1261;61161;-24
2023/10/10 15:55:23;;;;;;;3.00;1.30;;;;;;;6.61;52.79;99488.94;105126;1265;61179;-23
2023/10/10 15:57:52;;;;;;;5.30;1.50;;;;;;;6.45;52.84;99490.16;104957;1266;74313;-24
2023/10/10 16:00:29;;;;;;;2.20;1.30;;;;;;;6.30;53.36;99491.19;104997;1267;71365;-24